Airfield :
LOGIN :

Register | Disclaimer

   EN    FR    IT 

 










Legend :    VFR   Marginal VFR   IFR   Intensive IFR   Very Intensive IFR
Visi :
Ceiling :
>= 8 km
>= 3000ft
5 to 8 km
1000 to 3000 ft
1500m to 5 km
500 to 1000 ft
800 to 1500m
200 to 500 ft
< 800m
< 200 ft
Symbols :   Thunderstorms  Fog  Heavy snow  Heavy precipitations  Wind > 20 kt
SIGMETs :     Misc.  Thunderstorms  Icing  Turbulence  Mountain Waves  Volcanic Ashes







- Airport Elevation : 466 ft


LHPA - Pápa

CURRENT METAR :
  • 230315Z 34008KT 8000 BKN030 18/17 Q1010 NOSIG RMK BLU

EXPIRED METARs :
  • 230245Z 33006KT 300V010 8000 BKN030 18/17 Q1010 NOSIG RMK BLU
  • 230215Z 31002KT 8000 BKN030 18/16 Q1010 NOSIG RMK BLU
  • 230115Z 35006KT 9999 BKN027 19/17 Q1010 NOSIG RMK BLU
  • 230045Z 32004KT 8000 BKN027 19/17 Q1011 NOSIG RMK BLU

TAF TAF LHPA
Valid from the 23 at 00:00 until the 24 at 00:00 UTC


222315Z 2300/2324 35006KT 9999 SCT040 SCT080
PROB40
TEMPO 2300/2304 8000 -SHRA SCT040TCU BKN080
BECMG 2309/2312 34012G22KT
TEMPO 2308/2315 8000 -SHRA SCT040TCU SCT080
PROB30
TEMPO 2308/2313 VRB16G30KT 6000 SHRA TSRA SCT030CB BKN050TCU
BECMG 2318/2321 34010KT CAVOK
No reported NOTAMs for that airfield.
1 SIGMET reported for the Budapest FIR (LHCC) :
 
Embedded thunderstorms
LHCC SIGMET 2 VALID 230310/230510 LHBP
LHCC BUDAPEST FIR EMBD TS OBS WI N4802 E01852 - N4812 E01939 - N4607 E02040 - N4558 E01915 - N4802 E01852 TOP FL300 MOV WSW INTSF=



MET'MAP, your aeronautical weather chart ! - Copyright ORBIFLY December 2007 - Disclaimer

ORBIFLY MET'MAP TEAM :

Programming & Development : Alexandra Zaïnal
Concept & Development : Baudouin d'Aumeries
Co-Development & Prog : Marc-Olivier Méhu
Technical & hardware support : Manuel Goepfert

Contact : metmap@orbifly.com




SOURCES & CREDITS :

   NOAA